Wolf Bayou, Arkansas
Current Conditions -  °F | °C
As of 11:15 AM on Sunday 21 Dec 2014 (Local Time) from KBVX Reporting Station
Overcast Overcast  
Wind Chill: 43°   Ceiling: 4700
Heat Index: 46°   Visibility: 10mi
Dew Point: 34°   Wind: 7mph
Humidity: 62%   Direction: 150°SSE
Pressure: 30.15"   Gusts: NA
Location:  35.6661°N, 91.94°W
Report Text: KBVX 211715Z AUTO 15006KT 10SM OVC047 08/01 A3015 RMK AO1
Loading
Personal Weather Stations






























Interactive Weather Map New forecast layout! Learn more

10-Day Weather Forecast

Advertisements
Track Severe Weather on mobile